Time;durP1;ratioP1;P1;durP2;ratioP2;P2;SDS_P1;SDS_P2;PMS_P1;PMS_P2;Temp;Humidity;BMP_temperature;BMP_pressure;BME280_temperature;BME280_humidity;BME280_pressure;Samples;Min_cycle;Max_cycle;Signal;HPM_P1;HPM_P2
2023/10/03 00:00:24;;;;;;;59.50;5.67;;;;;;;;;;5053756;28;20459;-69
2023/10/03 00:02:54;;;;;;;58.87;5.10;;;;;;;;;;5053536;28;20453;-69
2023/10/03 00:05:23;;;;;;;58.20;4.10;;;;;;;;;;5053635;28;20817;-69
2023/10/03 00:07:51;;;;;;;59.87;3.90;;;;;;;;;;5053067;28;20565;-69
2023/10/03 00:10:18;;;;;;;57.20;3.40;;;;;;;;;;5053102;28;20863;-69
2023/10/03 00:12:48;;;;;;;57.63;4.10;;;;;;;;;;5053199;28;20992;-69
2023/10/03 00:15:15;;;;;;;57.30;3.30;;;;;;;;;;5053489;28;20842;-69
2023/10/03 00:17:42;;;;;;;57.20;3.10;;;;;;;;;;5060406;28;20460;-69
2023/10/03 00:20:11;;;;;;;61.00;4.93;;;;;;;;;;5065175;28;21006;-69
2023/10/03 00:22:40;;;;;;;58.90;4.73;;;;;;;;;;5067559;28;20451;-69
2023/10/03 00:25:08;;;;;;;62.10;3.97;;;;;;;;;;5067368;28;20512;-69
2023/10/03 00:27:37;;;;;;;58.17;3.93;;;;;;;;;;5061725;28;20487;-69
2023/10/03 00:30:05;;;;;;;58.87;4.43;;;;;;;;;;5061306;28;20500;-70
2023/10/03 00:32:32;;;;;;;57.37;3.77;;;;;;;;;;5061622;28;20452;-69
2023/10/03 00:35:00;;;;;;;58.80;4.97;;;;;;;;;;5062684;28;20451;-70
2023/10/03 00:37:27;;;;;;;57.63;4.03;;;;;;;;;;5063068;28;20445;-70
2023/10/03 00:39:59;;;;;;;59.27;4.67;;;;;;;;;;5063265;28;20559;-70
2023/10/03 00:42:27;;;;;;;59.60;5.17;;;;;;;;;;5062849;28;20453;-70
2023/10/03 00:44:55;;;;;;;59.93;5.30;;;;;;;;;;5062432;28;20448;-70
2023/10/03 00:47:23;;;;;;;59.30;4.20;;;;;;;;;;5062227;28;20479;-70
2023/10/03 00:49:50;;;;;;;58.80;3.43;;;;;;;;;;5061246;28;20448;-70
2023/10/03 00:52:17;;;;;;;58.43;4.33;;;;;;;;;;5062040;28;20483;-70
2023/10/03 00:54:44;;;;;;;57.60;3.73;;;;;;;;;;5061773;28;20977;-70
2023/10/03 00:57:13;;;;;;;60.70;4.23;;;;;;;;;;5053104;28;20540;-69
2023/10/03 00:59:42;;;;;;;57.87;3.87;;;;;;;;;;5061002;28;20491;-70
2023/10/03 01:02:10;;;;;;;58.30;3.90;;;;;;;;;;5056619;28;20440;-70
2023/10/03 01:04:37;;;;;;;60.73;4.63;;;;;;;;;;5060906;28;20520;-70
2023/10/03 01:07:04;;;;;;;58.13;3.57;;;;;;;;;;5061130;28;20448;-70
2023/10/03 01:09:33;;;;;;;58.30;3.97;;;;;;;;;;5058543;28;20488;-70
2023/10/03 01:12:00;;;;;;;59.83;5.30;;;;;;;;;;5052181;28;20539;-70
2023/10/03 01:14:29;;;;;;;58.27;3.77;;;;;;;;;;5052151;28;20452;-70
2023/10/03 01:16:56;;;;;;;62.77;4.07;;;;;;;;;;5052220;28;20444;-70
2023/10/03 01:19:29;;;;;;;57.20;3.80;;;;;;;;;;5051798;28;20472;-70
2023/10/03 01:21:56;;;;;;;59.00;3.80;;;;;;;;;;5051657;28;20550;-70
2023/10/03 01:24:25;;;;;;;60.10;3.80;;;;;;;;;;5055212;28;20460;-70
2023/10/03 01:26:53;;;;;;;57.20;3.47;;;;;;;;;;5053771;28;20454;-69
2023/10/03 01:29:20;;;;;;;56.90;3.10;;;;;;;;;;5054239;28;20534;-70
2023/10/03 01:31:48;;;;;;;60.57;4.77;;;;;;;;;;5053118;28;21017;-70
2023/10/03 01:34:16;;;;;;;58.37;4.20;;;;;;;;;;5053221;28;20480;-70
2023/10/03 01:36:48;;;;;;;58.90;4.17;;;;;;;;;;5051554;28;20486;-70
2023/10/03 01:39:15;;;;;;;58.23;3.13;;;;;;;;;;5043674;28;20471;-70
2023/10/03 01:41:43;;;;;;;59.10;4.53;;;;;;;;;;5051567;28;20820;-71
2023/10/03 01:44:10;;;;;;;60.93;5.73;;;;;;;;;;5051507;28;20442;-70
2023/10/03 01:46:39;;;;;;;58.60;4.87;;;;;;;;;;5052388;28;20456;-70
2023/10/03 01:49:06;;;;;;;57.33;3.43;;;;;;;;;;5051498;28;20503;-69
2023/10/03 01:51:33;;;;;;;59.97;4.83;;;;;;;;;;5051963;28;20940;-70
2023/10/03 01:54:01;;;;;;;57.87;4.80;;;;;;;;;;5051875;28;20535;-69
2023/10/03 01:56:29;;;;;;;57.37;4.30;;;;;;;;;;5051663;28;20450;-70
2023/10/03 01:59:00;;;;;;;60.57;5.57;;;;;;;;;;5051678;28;20542;-70
2023/10/03 02:01:28;;;;;;;58.50;3.57;;;;;;;;;;5051055;28;20694;-70
2023/10/03 02:03:55;;;;;;;57.67;3.63;;;;;;;;;;5051683;28;20512;-70
2023/10/03 02:06:23;;;;;;;57.00;3.10;;;;;;;;;;5051409;28;20539;-70
2023/10/03 02:08:50;;;;;;;61.50;3.93;;;;;;;;;;5051495;28;20545;-70
2023/10/03 02:11:17;;;;;;;58.90;4.07;;;;;;;;;;5051475;28;21006;-70
2023/10/03 02:13:45;;;;;;;58.90;5.20;;;;;;;;;;5051673;28;20445;-70
2023/10/03 02:16:14;;;;;;;63.53;3.97;;;;;;;;;;5051507;28;20480;-70
2023/10/03 02:18:42;;;;;;;57.90;3.73;;;;;;;;;;5051929;28;21204;-70
2023/10/03 02:21:09;;;;;;;56.93;3.40;;;;;;;;;;5051201;28;20456;-70
2023/10/03 02:23:36;;;;;;;58.80;5.20;;;;;;;;;;5051536;28;20463;-70
2023/10/03 02:26:10;;;;;;;57.17;3.47;;;;;;;;;;5051593;28;20803;-70
2023/10/03 02:28:38;;;;;;;57.30;3.60;;;;;;;;;;5050820;28;20482;-70
2023/10/03 02:31:07;;;;;;;57.30;3.23;;;;;;;;;;5050296;28;20448;-70
2023/10/03 02:33:37;;;;;;;58.63;3.67;;;;;;;;;;5050625;28;20880;-70
2023/10/03 02:36:05;;;;;;;57.67;3.60;;;;;;;;;;5050780;28;20452;-70
2023/10/03 02:38:36;;;;;;;56.67;3.23;;;;;;;;;;5050678;28;20464;-70
2023/10/03 02:41:05;;;;;;;57.07;3.13;;;;;;;;;;5050611;28;20959;-70
2023/10/03 02:43:34;;;;;;;58.63;3.57;;;;;;;;;;5050919;28;20444;-70
2023/10/03 02:46:04;;;;;;;56.90;2.70;;;;;;;;;;5050958;28;20851;-70
2023/10/03 02:48:31;;;;;;;61.13;4.47;;;;;;;;;;5050416;28;20468;-70
2023/10/03 02:51:01;;;;;;;57.60;4.30;;;;;;;;;;5050626;28;20455;-70
2023/10/03 02:53:29;;;;;;;58.17;3.57;;;;;;;;;;5050668;28;20867;-68
2023/10/03 02:55:56;;;;;;;57.30;3.47;;;;;;;;;;5050642;28;20501;-69
2023/10/03 02:58:23;;;;;;;59.17;5.63;;;;;;;;;;5050150;28;20513;-69
2023/10/03 03:00:51;;;;;;;57.40;3.40;;;;;;;;;;5050463;28;20448;-69
2023/10/03 03:03:18;;;;;;;57.23;3.80;;;;;;;;;;5050658;28;20441;-69
2023/10/03 03:05:48;;;;;;;59.50;4.80;;;;;;;;;;5050566;28;20450;-69
2023/10/03 03:08:23;;;;;;;57.90;4.00;;;;;;;;;;5054122;28;20965;-69
2023/10/03 03:10:54;;;;;;;60.47;5.43;;;;;;;;;;5054216;28;20451;-69
2023/10/03 03:13:23;;;;;;;57.60;3.63;;;;;;;;;;5054445;28;20448;-69
2023/10/03 03:15:54;;;;;;;62.83;5.23;;;;;;;;;;5054420;28;20832;-68
2023/10/03 03:18:21;;;;;;;58.37;4.83;;;;;;;;;;5053954;28;20484;-68
2023/10/03 03:20:57;;;;;;;57.20;3.37;;;;;;;;;;5053286;28;20626;-68
2023/10/03 03:23:30;;;;;;;58.17;3.43;;;;;;;;;;5053910;28;20455;-68
2023/10/03 03:26:09;;;;;;;58.73;4.57;;;;;;;;;;5053861;28;20939;-69
2023/10/03 03:28:38;;;;;;;60.67;4.00;;;;;;;;;;5053891;28;20882;-69
2023/10/03 03:31:16;;;;;;;59.53;4.50;;;;;;;;;;5053636;28;20451;-69
2023/10/03 03:33:45;;;;;;;58.53;3.87;;;;;;;;;;5053990;28;20987;-69
2023/10/03 03:36:17;;;;;;;57.40;4.17;;;;;;;;;;5053951;28;20669;-69
2023/10/03 03:38:45;;;;;;;57.57;4.20;;;;;;;;;;5053896;28;20522;-69
2023/10/03 03:41:12;;;;;;;58.57;4.43;;;;;;;;;;5053703;28;20457;-69
2023/10/03 03:43:39;;;;;;;57.50;3.77;;;;;;;;;;5053954;28;20802;-69
2023/10/03 03:46:08;;;;;;;60.80;4.83;;;;;;;;;;5053534;28;20448;-69
2023/10/03 03:48:36;;;;;;;58.23;4.20;;;;;;;;;;5053406;28;20511;-69
2023/10/03 03:51:05;;;;;;;59.07;3.47;;;;;;;;;;5053206;28;20448;-69
2023/10/03 03:53:32;;;;;;;57.63;4.27;;;;;;;;;;5053366;28;20448;-70
2023/10/03 03:56:04;;;;;;;57.97;4.17;;;;;;;;;;5053439;28;20448;-69
2023/10/03 03:58:31;;;;;;;58.13;3.27;;;;;;;;;;5053058;28;20550;-69
2023/10/03 04:01:00;;;;;;;57.30;3.73;;;;;;;;;;5053091;28;20673;-69
2023/10/03 04:03:33;;;;;;;60.30;3.03;;;;;;;;;;5053551;28;20894;-69
2023/10/03 04:06:01;;;;;;;56.93;3.20;;;;;;;;;;5053387;28;20452;-69
2023/10/03 04:08:28;;;;;;;62.33;6.90;;;;;;;;;;5053383;28;20500;-69
2023/10/03 04:10:55;;;;;;;57.97;4.40;;;;;;;;;;5053081;28;20454;-69
2023/10/03 04:13:24;;;;;;;57.10;3.13;;;;;;;;;;5053141;28;20535;-69
2023/10/03 04:15:52;;;;;;;60.40;3.70;;;;;;;;;;5052911;28;20444;-69
2023/10/03 04:18:19;;;;;;;58.57;4.00;;;;;;;;;;5052526;28;20498;-69
2023/10/03 04:20:47;;;;;;;57.60;3.87;;;;;;;;;;5052988;28;20867;-69
2023/10/03 04:23:15;;;;;;;60.70;4.50;;;;;;;;;;5052822;28;20987;-69
2023/10/03 04:25:42;;;;;;;58.07;4.40;;;;;;;;;;5052856;28;20468;-69
2023/10/03 04:28:11;;;;;;;57.30;3.70;;;;;;;;;;5052543;28;20491;-69
2023/10/03 04:30:41;;;;;;;58.80;5.20;;;;;;;;;;5052849;28;20506;-69
2023/10/03 04:33:08;;;;;;;57.17;3.37;;;;;;;;;;5052813;28;20452;-69
2023/10/03 04:35:35;;;;;;;60.53;4.30;;;;;;;;;;5052907;28;20448;-69
2023/10/03 04:38:04;;;;;;;57.50;4.73;;;;;;;;;;5052477;28;20832;-69
2023/10/03 04:40:34;;;;;;;57.90;4.00;;;;;;;;;;5052429;28;20571;-69
2023/10/03 04:43:06;;;;;;;59.37;4.93;;;;;;;;;;5052357;28;20452;-69
2023/10/03 04:45:35;;;;;;;56.70;3.17;;;;;;;;;;5052824;28;20902;-69
2023/10/03 04:48:04;;;;;;;57.27;3.30;;;;;;;;;;5052308;28;20491;-69
2023/10/03 04:50:31;;;;;;;57.30;3.83;;;;;;;;;;5052269;28;20448;-69
2023/10/03 04:53:00;;;;;;;57.80;3.10;;;;;;;;;;5052361;28;20445;-69
2023/10/03 04:55:27;;;;;;;60.50;4.03;;;;;;;;;;5052059;28;20491;-69
2023/10/03 04:57:54;;;;;;;57.07;2.83;;;;;;;;;;5052219;28;20475;-69
2023/10/03 05:00:23;;;;;;;60.30;3.40;;;;;;;;;;5051987;28;20532;-70
2023/10/03 05:02:51;;;;;;;60.90;5.30;;;;;;;;;;5052109;28;20452;-69
2023/10/03 05:05:20;;;;;;;58.90;4.53;;;;;;;;;;5052212;28;20458;-70
2023/10/03 05:07:48;;;;;;;59.80;4.77;;;;;;;;;;5051880;28;20485;-69
2023/10/03 05:10:17;;;;;;;59.00;5.23;;;;;;;;;;5052048;28;20479;-69
2023/10/03 05:12:45;;;;;;;57.77;3.73;;;;;;;;;;5052479;28;20479;-69
2023/10/03 05:15:14;;;;;;;57.43;4.00;;;;;;;;;;5051989;28;20471;-70
2023/10/03 05:17:41;;;;;;;58.37;4.50;;;;;;;;;;5051971;28;20468;-70
2023/10/03 05:20:09;;;;;;;58.13;3.87;;;;;;;;;;5051435;28;21089;-70
2023/10/03 05:22:38;;;;;;;56.70;2.40;;;;;;;;;;5051384;28;20803;-70
2023/10/03 05:25:07;;;;;;;58.20;4.37;;;;;;;;;;5051902;28;20548;-70
2023/10/03 05:27:34;;;;;;;58.50;5.27;;;;;;;;;;5051438;28;20476;-70
2023/10/03 05:30:04;;;;;;;58.90;3.23;;;;;;;;;;5050671;28;20451;-70
2023/10/03 05:32:32;;;;;;;57.10;2.73;;;;;;;;;;5051718;28;20562;-70
2023/10/03 05:35:00;;;;;;;59.83;4.20;;;;;;;;;;5051481;28;20450;-70
2023/10/03 05:37:27;;;;;;;57.30;3.20;;;;;;;;;;5051894;28;20479;-70
2023/10/03 05:39:58;;;;;;;61.97;4.87;;;;;;;;;;5051608;28;20495;-70
2023/10/03 05:42:26;;;;;;;63.20;3.77;;;;;;;;;;5051565;28;20453;-70
2023/10/03 05:44:54;;;;;;;57.53;3.00;;;;;;;;;;5051375;28;20449;-70
2023/10/03 05:47:21;;;;;;;57.63;3.73;;;;;;;;;;5051196;28;20470;-70
2023/10/03 05:49:48;;;;;;;58.37;3.57;;;;;;;;;;5050996;28;20452;-70
2023/10/03 05:52:16;;;;;;;57.23;3.63;;;;;;;;;;5051052;28;20982;-70
2023/10/03 05:54:44;;;;;;;56.90;2.87;;;;;;;;;;5048892;28;20518;-70
2023/10/03 05:57:13;;;;;;;56.90;2.97;;;;;;;;;;5050960;28;20448;-70
2023/10/03 05:59:40;;;;;;;56.90;2.70;;;;;;;;;;5050942;28;20477;-70
2023/10/03 06:02:07;;;;;;;58.03;4.33;;;;;;;;;;5050952;28;20519;-70
2023/10/03 06:04:36;;;;;;;57.80;4.27;;;;;;;;;;5051193;28;20448;-70
2023/10/03 06:07:06;;;;;;;62.73;3.23;;;;;;;;;;5051183;28;20496;-70
2023/10/03 06:09:33;;;;;;;64.23;5.27;;;;;;;;;;5050907;28;20469;-70
2023/10/03 06:12:00;;;;;;;59.10;4.40;;;;;;;;;;5050822;28;20459;-69
2023/10/03 06:14:29;;;;;;;58.30;3.10;;;;;;;;;;5050886;28;20448;-69
2023/10/03 06:16:56;;;;;;;59.53;5.00;;;;;;;;;;5051442;28;20894;-69
2023/10/03 06:19:23;;;;;;;56.70;2.60;;;;;;;;;;5050610;28;20524;-70
2023/10/03 06:21:50;;;;;;;57.77;3.53;;;;;;;;;;5050999;28;20812;-69
2023/10/03 06:24:17;;;;;;;57.97;4.43;;;;;;;;;;5050717;28;20466;-69
2023/10/03 06:26:44;;;;;;;57.83;3.07;;;;;;;;;;5050732;28;20459;-69
2023/10/03 06:29:15;;;;;;;58.70;3.57;;;;;;;;;;5050620;28;20483;-69
2023/10/03 06:31:44;;;;;;;59.00;4.20;;;;;;;;;;5051156;28;20526;-70
2023/10/03 06:34:11;;;;;;;56.30;2.47;;;;;;;;;;5051354;28;20448;-67
2023/10/03 06:36:39;;;;;;;58.03;3.23;;;;;;;;;;5051027;28;20535;-70
2023/10/03 06:39:07;;;;;;;57.00;3.03;;;;;;;;;;5050823;28;20475;-70
2023/10/03 06:41:34;;;;;;;58.37;3.40;;;;;;;;;;5054334;28;20539;-70
2023/10/03 06:44:02;;;;;;;60.73;4.90;;;;;;;;;;5054526;28;20454;-70
2023/10/03 06:46:29;;;;;;;57.17;3.63;;;;;;;;;;5055073;28;20447;-70
2023/10/03 06:48:58;;;;;;;57.00;3.47;;;;;;;;;;5054548;28;21010;-70
2023/10/03 06:51:25;;;;;;;57.00;3.07;;;;;;;;;;5054528;28;20797;-68
2023/10/03 06:53:52;;;;;;;57.43;2.87;;;;;;;;;;5054901;28;20733;-70
2023/10/03 06:56:20;;;;;;;58.00;3.53;;;;;;;;;;5054909;28;20955;-69
2023/10/03 06:58:48;;;;;;;59.07;3.60;;;;;;;;;;5054456;28;20555;-68
2023/10/03 07:01:15;;;;;;;56.90;3.13;;;;;;;;;;5054363;28;20954;-69
2023/10/03 07:03:43;;;;;;;57.77;4.60;;;;;;;;;;5054462;28;20452;-69
2023/10/03 07:06:12;;;;;;;58.37;3.40;;;;;;;;;;5054218;28;20470;-69
2023/10/03 07:08:41;;;;;;;58.30;3.60;;;;;;;;;;5054005;28;20468;-69
2023/10/03 07:11:12;;;;;;;58.47;3.93;;;;;;;;;;5054215;28;20448;-69
2023/10/03 07:13:39;;;;;;;57.10;3.00;;;;;;;;;;5054419;28;20456;-69
2023/10/03 07:16:08;;;;;;;56.57;2.90;;;;;;;;;;5054221;28;20451;-68
2023/10/03 07:18:36;;;;;;;58.77;3.50;;;;;;;;;;5053848;28;20564;-68
2023/10/03 07:21:04;;;;;;;57.20;3.43;;;;;;;;;;5053662;28;20490;-69
2023/10/03 07:23:32;;;;;;;57.47;3.83;;;;;;;;;;5054225;28;20514;-69
2023/10/03 07:25:59;;;;;;;60.77;4.00;;;;;;;;;;5054302;28;20444;-68
2023/10/03 07:28:26;;;;;;;60.50;3.57;;;;;;;;;;5053751;28;20456;-69
2023/10/03 07:30:54;;;;;;;56.80;2.90;;;;;;;;;;5053672;28;20440;-70
2023/10/03 07:33:22;;;;;;;56.87;2.70;;;;;;;;;;5053832;28;20475;-69
2023/10/03 07:35:49;;;;;;;56.83;2.20;;;;;;;;;;5053836;28;20940;-70
2023/10/03 07:38:17;;;;;;;57.30;2.93;;;;;;;;;;5053694;28;21026;-69
2023/10/03 07:40:46;;;;;;;57.27;2.87;;;;;;;;;;5053646;28;20475;-69
2023/10/03 07:43:13;;;;;;;57.50;2.50;;;;;;;;;;5053649;28;20928;-70
2023/10/03 07:45:40;;;;;;;57.27;3.43;;;;;;;;;;5053564;28;20456;-69
2023/10/03 07:48:09;;;;;;;59.63;3.07;;;;;;;;;;5053345;28;20476;-69
2023/10/03 07:50:37;;;;;;;57.37;3.23;;;;;;;;;;5053452;28;20450;-69
2023/10/03 07:53:04;;;;;;;56.70;2.30;;;;;;;;;;5052855;28;20823;-69
2023/10/03 07:55:35;;;;;;;57.47;2.87;;;;;;;;;;5047041;28;20460;-69
2023/10/03 07:58:03;;;;;;;58.10;3.00;;;;;;;;;;5051859;28;20487;-70
2023/10/03 08:00:31;;;;;;;57.30;3.30;;;;;;;;;;5049899;28;20484;-70
2023/10/03 08:02:58;;;;;;;56.80;2.43;;;;;;;;;;5053300;28;20532;-69
2023/10/03 08:05:27;;;;;;;57.27;2.67;;;;;;;;;;5053301;28;20571;-68
2023/10/03 08:07:56;;;;;;;56.77;3.07;;;;;;;;;;5052949;28;20472;-68
2023/10/03 08:10:24;;;;;;;56.50;2.40;;;;;;;;;;5052883;28;20873;-68
2023/10/03 08:12:52;;;;;;;56.80;2.40;;;;;;;;;;5053097;28;20451;-69
2023/10/03 08:15:22;;;;;;;56.57;2.20;;;;;;;;;;5052723;28;20456;-68
2023/10/03 08:17:53;;;;;;;56.90;2.80;;;;;;;;;;5053282;28;20472;-68
2023/10/03 08:20:21;;;;;;;57.43;2.70;;;;;;;;;;5052892;28;20480;-68
2023/10/03 08:22:51;;;;;;;57.50;2.87;;;;;;;;;;5052858;28;20522;-68
2023/10/03 08:25:19;;;;;;;56.97;2.53;;;;;;;;;;5052810;28;20452;-68
2023/10/03 08:27:47;;;;;;;56.77;2.53;;;;;;;;;;5052457;28;20472;-68
2023/10/03 08:30:26;;;;;;;57.10;2.80;;;;;;;;;;5052971;28;20812;-68
2023/10/03 08:32:55;;;;;;;57.23;2.77;;;;;;;;;;5053007;28;20461;-68
2023/10/03 08:35:34;;;;;;;56.77;3.07;;;;;;;;;;5052437;28;20469;-68
2023/10/03 08:38:04;;;;;;;56.67;2.43;;;;;;;;;;5050906;28;20476;-68
2023/10/03 08:40:31;;;;;;;58.93;2.60;;;;;;;;;;5052337;28;20499;-69
2023/10/03 08:43:02;;;;;;;57.37;2.40;;;;;;;;;;5052752;28;20444;-68
2023/10/03 08:45:31;;;;;;;56.73;3.10;;;;;;;;;;5052261;28;20445;-69
2023/10/03 08:48:05;;;;;;;57.00;2.57;;;;;;;;;;5052312;28;20486;-68
2023/10/03 08:50:37;;;;;;;57.20;3.30;;;;;;;;;;5052086;28;21181;-68
2023/10/03 08:53:15;;;;;;;56.50;2.90;;;;;;;;;;5052588;28;20535;-68
2023/10/03 08:55:43;;;;;;;58.80;2.63;;;;;;;;;;5052134;28;21137;-68
2023/10/03 08:58:13;;;;;;;57.50;3.27;;;;;;;;;;5052369;28;20515;-69
2023/10/03 09:00:42;;;;;;;56.80;3.60;;;;;;;;;;5052373;28;20929;-68
2023/10/03 09:03:12;;;;;;;57.50;2.60;;;;;;;;;;5051304;28;20967;-68
2023/10/03 09:05:41;;;;;;;57.37;2.63;;;;;;;;;;5044526;28;20558;-68
2023/10/03 09:08:09;;;;;;;58.77;3.37;;;;;;;;;;5052026;28;20538;-69
2023/10/03 09:10:42;;;;;;;57.87;3.13;;;;;;;;;;5052021;28;20441;-68
2023/10/03 09:13:23;;;;;;;57.30;3.23;;;;;;;;;;5052085;28;20441;-68
2023/10/03 09:15:50;;;;;;;56.80;2.60;;;;;;;;;;5051827;28;20925;-69
2023/10/03 09:18:21;;;;;;;56.70;2.30;;;;;;;;;;5051955;28;20852;-68
2023/10/03 09:20:49;;;;;;;57.57;2.83;;;;;;;;;;5051681;28;20503;-68
2023/10/03 09:23:18;;;;;;;56.33;2.63;;;;;;;;;;5051714;28;20506;-69
2023/10/03 09:25:52;;;;;;;59.10;2.80;;;;;;;;;;5051710;28;20448;-69
2023/10/03 09:28:27;;;;;;;56.40;2.80;;;;;;;;;;5051482;28;20573;-70
2023/10/03 09:30:56;;;;;;;57.50;2.40;;;;;;;;;;5051668;28;20463;-70
2023/10/03 09:33:25;;;;;;;56.13;2.63;;;;;;;;;;5051322;28;20448;-68
2023/10/03 09:35:58;;;;;;;56.70;2.37;;;;;;;;;;5051511;28;20451;-69
2023/10/03 09:38:42;;;;;;;57.53;3.23;;;;;;;;;;5051173;28;20479;-69
2023/10/03 09:41:16;;;;;;;56.70;2.83;;;;;;;;;;5051562;28;20523;-68
2023/10/03 09:43:44;;;;;;;56.77;2.20;;;;;;;;;;5044282;28;20484;-68
2023/10/03 09:46:12;;;;;;;56.37;2.73;;;;;;;;;;5051332;28;20483;-67
2023/10/03 09:48:40;;;;;;;56.97;3.10;;;;;;;;;;5051188;28;20472;-68
2023/10/03 09:51:08;;;;;;;56.27;2.60;;;;;;;;;;5050986;28;20456;-69
2023/10/03 09:53:36;;;;;;;57.43;3.10;;;;;;;;;;5051365;28;20479;-68
2023/10/03 09:56:08;;;;;;;56.50;2.50;;;;;;;;;;5051227;28;20456;-67
2023/10/03 09:58:35;;;;;;;57.17;2.57;;;;;;;;;;5051082;28;20512;-68
2023/10/03 10:01:03;;;;;;;56.33;2.30;;;;;;;;;;5050932;28;20556;-68
2023/10/03 10:03:33;;;;;;;56.40;2.30;;;;;;;;;;5050901;28;20452;-68
2023/10/03 10:06:12;;;;;;;55.97;2.40;;;;;;;;;;5051245;28;20773;-67
2023/10/03 10:08:46;;;;;;;55.97;2.03;;;;;;;;;;5042985;28;20502;-69
2023/10/03 10:11:13;;;;;;;56.30;2.50;;;;;;;;;;5050852;28;20531;-68
2023/10/03 10:14:00;;;;;;;57.40;2.40;;;;;;;;;;5050987;28;20444;-68
2023/10/03 10:16:28;;;;;;;56.00;2.20;;;;;;;;;;5050837;28;20445;-69
2023/10/03 10:18:59;;;;;;;56.10;2.40;;;;;;;;;;5050621;28;20563;-68
2023/10/03 10:21:30;;;;;;;56.60;2.90;;;;;;;;;;5050662;28;20830;-69
2023/10/03 10:24:16;;;;;;;56.50;2.10;;;;;;;;;;5050824;28;20499;-68
2023/10/03 10:26:48;;;;;;;58.47;2.67;;;;;;;;;;5050599;28;20619;-69
2023/10/03 10:29:19;;;;;;;55.50;1.90;;;;;;;;;;5050550;28;20476;-69
2023/10/03 10:31:49;;;;;;;56.23;2.20;;;;;;;;;;5050625;28;20571;-68
2023/10/03 10:34:47;;;;;;;55.33;2.10;;;;;;;;;;5050630;28;20483;-69
2023/10/03 10:37:18;;;;;;;56.97;2.30;;;;;;;;;;5050475;28;20448;-68
2023/10/03 10:40:09;;;;;;;56.40;2.30;;;;;;;;;;5050549;28;20479;-68
2023/10/03 10:42:51;;;;;;;56.40;2.53;;;;;;;;;;5050764;28;20451;-68
2023/10/03 10:45:20;;;;;;;57.60;2.50;;;;;;;;;;5050303;28;20448;-68
2023/10/03 10:47:50;;;;;;;56.50;2.70;;;;;;;;;;5050501;28;20506;-68
2023/10/03 10:50:18;;;;;;;56.43;2.30;;;;;;;;;;5050325;28;20502;-69
2023/10/03 10:52:53;;;;;;;56.43;2.30;;;;;;;;;;5050549;28;20454;-68
2023/10/03 10:55:22;;;;;;;56.00;1.90;;;;;;;;;;5050354;28;20539;-68
2023/10/03 10:57:49;;;;;;;55.97;2.20;;;;;;;;;;5050139;28;20468;-67
2023/10/03 11:00:21;;;;;;;55.90;1.90;;;;;;;;;;5050228;28;20463;-67
2023/10/03 11:02:48;;;;;;;56.80;2.70;;;;;;;;;;5050769;28;20460;-67
2023/10/03 11:05:15;;;;;;;56.73;2.33;;;;;;;;;;5050284;28;20941;-67
2023/10/03 11:07:49;;;;;;;56.57;1.93;;;;;;;;;;5050083;28;21019;-69
2023/10/03 11:10:18;;;;;;;56.37;2.10;;;;;;;;;;5049943;28;20452;-69
2023/10/03 11:12:45;;;;;;;56.40;2.40;;;;;;;;;;5050550;28;20820;-68
2023/10/03 11:15:15;;;;;;;56.40;2.10;;;;;;;;;;5050391;28;20444;-67
2023/10/03 11:17:49;;;;;;;56.30;2.33;;;;;;;;;;5042137;28;20837;-69
2023/10/03 11:20:17;;;;;;;57.63;3.00;;;;;;;;;;5050498;28;20458;-69
2023/10/03 11:22:47;;;;;;;56.83;2.73;;;;;;;;;;5049840;28;20467;-68
2023/10/03 11:25:14;;;;;;;56.50;2.33;;;;;;;;;;5050348;28;20883;-68
2023/10/03 11:27:42;;;;;;;57.17;2.57;;;;;;;;;;5044028;28;20816;-69
2023/10/03 11:30:16;;;;;;;56.67;2.50;;;;;;;;;;5053774;28;20451;-69
2023/10/03 11:32:43;;;;;;;57.20;2.80;;;;;;;;;;5053911;28;20946;-69
2023/10/03 11:35:17;;;;;;;56.67;2.83;;;;;;;;;;5053668;28;20467;-69
2023/10/03 11:37:46;;;;;;;55.97;2.77;;;;;;;;;;5053500;28;20467;-69
2023/10/03 11:40:14;;;;;;;56.67;2.20;;;;;;;;;;5053939;28;20519;-68
2023/10/03 11:42:50;;;;;;;56.50;2.30;;;;;;;;;;5053863;28;20432;-69
2023/10/03 11:45:18;;;;;;;57.63;2.50;;;;;;;;;;5053570;28;20448;-68
2023/10/03 11:47:46;;;;;;;56.80;2.60;;;;;;;;;;5053340;28;20483;-69
2023/10/03 11:50:13;;;;;;;56.60;2.40;;;;;;;;;;5053735;28;20450;-68
2023/10/03 11:52:41;;;;;;;56.97;2.70;;;;;;;;;;5053328;28;20492;-69
2023/10/03 11:55:09;;;;;;;56.73;2.20;;;;;;;;;;5053501;28;20476;-69
2023/10/03 11:57:36;;;;;;;56.40;2.33;;;;;;;;;;5053159;28;20465;-69
2023/10/03 12:00:14;;;;;;;56.30;2.50;;;;;;;;;;5053447;28;20448;-69
2023/10/03 12:02:41;;;;;;;56.67;2.60;;;;;;;;;;5053361;28;20808;-69
2023/10/03 12:05:11;;;;;;;57.30;2.40;;;;;;;;;;5053531;28;20448;-69
2023/10/03 12:07:39;;;;;;;56.17;2.10;;;;;;;;;;5053410;28;20902;-69
2023/10/03 12:10:06;;;;;;;57.43;2.60;;;;;;;;;;5053232;28;20543;-69
2023/10/03 12:12:33;;;;;;;56.70;2.10;;;;;;;;;;5052914;28;20484;-68
2023/10/03 12:15:00;;;;;;;56.50;2.03;;;;;;;;;;5052998;28;20444;-69
2023/10/03 12:17:29;;;;;;;56.63;2.90;;;;;;;;;;5053155;28;20448;-68
2023/10/03 12:19:56;;;;;;;56.87;3.00;;;;;;;;;;5053024;28;20445;-70
2023/10/03 12:22:23;;;;;;;57.37;2.60;;;;;;;;;;5053033;28;20649;-68
2023/10/03 12:24:51;;;;;;;57.30;2.60;;;;;;;;;;5052838;28;20567;-68
2023/10/03 12:27:19;;;;;;;56.77;2.90;;;;;;;;;;5052849;28;20453;-68
2023/10/03 12:29:46;;;;;;;57.27;2.70;;;;;;;;;;5052785;28;20533;-69
2023/10/03 12:32:13;;;;;;;56.40;2.50;;;;;;;;;;5052910;28;20780;-68
2023/10/03 12:34:43;;;;;;;56.50;2.43;;;;;;;;;;5052725;28;20463;-68
2023/10/03 12:37:11;;;;;;;57.43;2.87;;;;;;;;;;5052716;28;20453;-68
2023/10/03 12:39:38;;;;;;;56.60;2.27;;;;;;;;;;5052111;28;20460;-69
2023/10/03 12:42:07;;;;;;;56.37;2.53;;;;;;;;;;5052853;28;20757;-68
2023/10/03 12:44:34;;;;;;;57.50;2.77;;;;;;;;;;5052580;28;20456;-69
2023/10/03 12:47:01;;;;;;;57.50;3.30;;;;;;;;;;5052636;28;20818;-69
2023/10/03 12:49:28;;;;;;;57.27;2.20;;;;;;;;;;5052268;28;20463;-68
2023/10/03 12:51:57;;;;;;;56.50;2.33;;;;;;;;;;5052228;28;20491;-69
2023/10/03 12:54:24;;;;;;;56.70;2.90;;;;;;;;;;5052658;28;20459;-68
2023/10/03 12:56:51;;;;;;;56.27;2.23;;;;;;;;;;5052603;28;20448;-69
2023/10/03 12:59:18;;;;;;;56.20;2.20;;;;;;;;;;5052195;28;20472;-69
2023/10/03 13:01:46;;;;;;;56.30;2.10;;;;;;;;;;5052367;28;20452;-68
2023/10/03 13:04:13;;;;;;;56.90;2.97;;;;;;;;;;5052204;28;20448;-70
2023/10/03 13:06:40;;;;;;;56.77;2.43;;;;;;;;;;5052005;28;20448;-69
2023/10/03 13:09:09;;;;;;;57.07;2.87;;;;;;;;;;5051980;28;21004;-68
2023/10/03 13:11:36;;;;;;;57.23;2.90;;;;;;;;;;5051581;28;21034;-68
2023/10/03 13:14:05;;;;;;;56.30;2.20;;;;;;;;;;5051997;28;20475;-68
2023/10/03 13:16:32;;;;;;;58.13;2.77;;;;;;;;;;5051802;28;20448;-68
2023/10/03 13:19:00;;;;;;;56.90;2.90;;;;;;;;;;5051605;28;20468;-70
2023/10/03 13:21:28;;;;;;;56.77;2.90;;;;;;;;;;5051490;28;20455;-69
2023/10/03 13:23:55;;;;;;;55.80;2.20;;;;;;;;;;5051777;28;20467;-70
2023/10/03 13:26:23;;;;;;;56.27;2.23;;;;;;;;;;5052080;28;20574;-70
2023/10/03 13:28:52;;;;;;;57.17;2.70;;;;;;;;;;5051561;28;20464;-69
2023/10/03 13:31:19;;;;;;;56.17;2.20;;;;;;;;;;5051318;28;20452;-70
2023/10/03 13:33:46;;;;;;;56.53;2.80;;;;;;;;;;5051561;28;20809;-70
2023/10/03 13:36:14;;;;;;;56.50;2.50;;;;;;;;;;5051401;28;20571;-68
2023/10/03 13:38:41;;;;;;;56.90;2.40;;;;;;;;;;5051196;28;20996;-68
2023/10/03 13:41:08;;;;;;;58.27;2.20;;;;;;;;;;5051514;28;20470;-69
2023/10/03 13:43:38;;;;;;;56.87;2.57;;;;;;;;;;5051406;28;20448;-70
2023/10/03 13:46:05;;;;;;;56.73;2.50;;;;;;;;;;5051502;28;20452;-70
2023/10/03 13:48:32;;;;;;;57.83;2.93;;;;;;;;;;5050885;28;20960;-70
2023/10/03 13:51:01;;;;;;;56.33;2.30;;;;;;;;;;5050725;28;20826;-69
2023/10/03 13:53:29;;;;;;;56.27;2.13;;;;;;;;;;5050943;28;20484;-69
2023/10/03 13:55:58;;;;;;;56.77;2.73;;;;;;;;;;5051170;28;20449;-69
2023/10/03 13:58:29;;;;;;;56.97;2.73;;;;;;;;;;5050922;28;20938;-69
2023/10/03 14:01:00;;;;;;;56.37;2.67;;;;;;;;;;5050950;28;20459;-69
2023/10/03 14:03:29;;;;;;;57.03;3.40;;;;;;;;;;5051078;28;20440;-68
2023/10/03 14:05:57;;;;;;;56.40;2.63;;;;;;;;;;5051216;28;20448;-68
2023/10/03 14:08:24;;;;;;;55.97;2.20;;;;;;;;;;5050656;28;20471;-68
2023/10/03 14:10:51;;;;;;;56.87;3.37;;;;;;;;;;5050778;28;20958;-68
2023/10/03 14:13:18;;;;;;;55.73;2.50;;;;;;;;;;5050867;28;20510;-68
2023/10/03 14:15:45;;;;;;;56.27;2.67;;;;;;;;;;5050500;28;20453;-68
2023/10/03 14:18:13;;;;;;;56.33;2.93;;;;;;;;;;5050895;28;20464;-69
2023/10/03 14:20:41;;;;;;;55.97;2.20;;;;;;;;;;5050862;28;20451;-69
2023/10/03 14:23:10;;;;;;;56.30;2.40;;;;;;;;;;5050749;28;20503;-69
2023/10/03 14:25:37;;;;;;;56.10;2.10;;;;;;;;;;5050741;28;21009;-69
2023/10/03 14:28:05;;;;;;;57.80;4.10;;;;;;;;;;5050355;28;20464;-69
2023/10/03 14:30:32;;;;;;;56.50;2.17;;;;;;;;;;5050475;28;20480;-70
2023/10/03 14:32:59;;;;;;;56.70;2.57;;;;;;;;;;5050686;28;20499;-68
2023/10/03 14:35:28;;;;;;;56.57;2.30;;;;;;;;;;5050574;28;20449;-69
2023/10/03 14:37:56;;;;;;;56.17;2.40;;;;;;;;;;5050510;28;20468;-69
2023/10/03 14:40:23;;;;;;;56.80;2.47;;;;;;;;;;5050344;28;20510;-69